Portada
METAR-TAF:

METAR-TAF

Aeroports :

Mwanza, Tanzània

latitud: 02-28S, longitud: 032-55E, altitud: 1139 m

Observació

L'informe es va fer fa 34 minuts, a les 07:00 UTC
Vent calma
Temperatura 24°C
Humitat 78%
Pressió 1016 hPa
Visibilitat 10 km o més
Escasses núvols a una alçada de 2200 ft

METAR: HTMW 220700Z 00000KT 9999 FEW022 24/20 Q1016 NOSIG

Hora: 10:34 (07:34 UTC)

Pronòstic

L'informe es va fer fa 2 hores i 34 minuts, a les 05:00 UTC
Pronòstic vàlid del 22 a les 06 UTC al 23 a les 06 UTC
Vent 10 kt del Sud/Sud-Est
Visibilitat 10 km o més
Escasses núvols a una alçada de 2200 ft
Escasses núvols a una alçada de 2300 ft, Cumulonimbus.
Evolucionant progressivament
l' 22 a les 10 UTC al 22 a les 12 UTC
Vent 10 kt del Nord/Nord-Oest
Evolucionant progressivament
l' 22 a les 16 UTC al 22 a les 18 UTC
Vent kt del Nord

TAF: HTMW 220500Z 2206/2306 15010KT 9999 FEW022 FEW023CB BECMG 2210/2212 33010KT BECMG 2216/2218 00000KT

Observacions i pronòstics meteorològics de més de 4000 aeroports (METAR i TAF).

Les estacions disponibles són els punts grocs i vermells al mapa.

Posi el ratolí al punt desitjat per veure el nom de l'estació.

Feu clic per veure les observacions i els pronòstics meteorològics.

Per canviar el mapa: feu clic els botons verds amb una creu de color negre per apropar; al botó verd amb un guió per allunyar la imatge; o en les fletxes verdes per a mapes adjacents.


METAR-TAF: